createdAt,value
2022-10-29T00:00:56.228Z,101390.34
2022-10-29T00:03:23.036Z,101440.91
2022-10-29T00:06:05.128Z,101427.09
2022-10-29T00:08:33.156Z,101462.78
2022-10-29T00:11:09.843Z,101394.59
2022-10-29T00:13:36.792Z,101396.16
2022-10-29T00:16:20.839Z,101429.16
2022-10-29T00:18:47.220Z,101431.88
2022-10-29T00:21:19.499Z,101464.00
2022-10-29T00:23:46.617Z,101455.25
2022-10-29T00:26:13.804Z,101437.03
2022-10-29T00:28:40.136Z,101416.34
2022-10-29T00:31:09.612Z,101451.00
2022-10-29T00:33:35.969Z,101444.97
2022-10-29T00:36:07.655Z,101447.63
2022-10-29T00:38:35.988Z,101442.50
2022-10-29T00:41:04.743Z,101441.63
2022-10-29T00:43:34.717Z,101385.44
2022-10-29T00:46:18.946Z,101414.09
2022-10-29T00:48:54.380Z,101441.28
2022-10-29T00:51:21.380Z,101388.34
2022-10-29T00:54:09.159Z,101426.44
2022-10-29T00:56:39.517Z,101421.13
2022-10-29T00:59:07.602Z,101395.13
2022-10-29T01:01:34.723Z,101446.13
2022-10-29T01:04:02.192Z,101419.53
2022-10-29T01:06:29.732Z,101441.94
2022-10-29T01:08:56.220Z,101424.94
2022-10-29T01:11:50.184Z,101418.66
2022-10-29T01:14:35.517Z,101424.69
2022-10-29T01:17:12.209Z,101422.97
2022-10-29T01:20:05.389Z,101423.78
2022-10-29T01:22:47.652Z,101400.28
2022-10-29T01:25:32.940Z,101410.63
2022-10-29T01:28:27.457Z,101424.31
2022-10-29T01:31:24.411Z,101435.50
2022-10-29T01:33:56.549Z,101397.97
2022-10-29T01:36:53.761Z,101428.50
2022-10-29T01:39:45.650Z,101438.38
2022-10-29T01:42:50.799Z,101440.88
2022-10-29T01:45:26.970Z,101394.38
2022-10-29T01:48:01.164Z,101425.44
2022-10-29T01:50:28.507Z,101393.50
2022-10-29T01:52:55.671Z,101389.69
2022-10-29T01:55:29.912Z,101412.16
2022-10-29T01:57:56.459Z,101385.41
2022-10-29T02:00:24.324Z,101384.63
2022-10-29T02:03:13.796Z,101391.78
2022-10-29T02:06:00.974Z,101371.22
2022-10-29T02:08:48.814Z,101408.34
2022-10-29T02:11:25.668Z,101383.28
2022-10-29T02:13:59.854Z,101400.53
2022-10-29T02:16:27.406Z,101388.09
2022-10-29T02:18:53.804Z,101372.69
2022-10-29T02:21:21.074Z,101395.88
2022-10-29T02:23:47.746Z,101359.31
2022-10-29T02:26:14.076Z,101340.16
2022-10-29T02:28:40.421Z,101379.97
2022-10-29T02:31:06.760Z,101347.97
2022-10-29T02:33:33.172Z,101343.84
2022-10-29T02:35:59.659Z,101374.91
2022-10-29T02:38:26.084Z,101381.00
2022-10-29T02:40:52.779Z,101354.44
2022-10-29T02:45:50.812Z,101366.63
2022-10-29T02:48:17.145Z,101362.94
2022-10-29T02:50:43.461Z,101344.78
2022-10-29T02:53:09.805Z,101345.34
2022-10-29T02:55:36.192Z,101349.63
2022-10-29T02:58:02.514Z,101345.22
2022-10-29T03:00:28.833Z,101327.97
2022-10-29T03:02:55.779Z,101339.00
2022-10-29T03:05:22.327Z,101345.09
2022-10-29T03:07:48.636Z,101351.38
2022-10-29T03:10:15.069Z,101324.41
2022-10-29T03:12:41.380Z,101333.03
2022-10-29T03:15:08.274Z,101350.16
2022-10-29T03:17:34.569Z,101353.34
2022-10-29T03:20:01.070Z,101326.50
2022-10-29T03:22:27.389Z,101329.94
2022-10-29T03:24:53.945Z,101290.66
2022-10-29T03:27:20.248Z,101306.19
2022-10-29T03:29:46.553Z,101307.53
2022-10-29T03:32:12.897Z,101311.50
2022-10-29T03:34:39.302Z,101304.63
2022-10-29T03:37:05.623Z,101287.56
2022-10-29T03:39:31.995Z,101310.97
2022-10-29T03:41:58.352Z,101253.28
2022-10-29T03:44:24.667Z,101269.47
2022-10-29T03:46:50.954Z,101268.75
2022-10-29T03:49:17.286Z,101277.63
2022-10-29T03:51:43.580Z,101326.13
2022-10-29T03:54:09.901Z,101338.38
2022-10-29T03:56:36.242Z,101333.88
2022-10-29T03:59:02.672Z,101306.19
2022-10-29T04:01:29.152Z,101287.78
2022-10-29T04:03:55.585Z,101320.59
2022-10-29T04:06:21.887Z,101284.56
2022-10-29T04:08:48.231Z,101321.72
2022-10-29T04:11:14.614Z,101295.72
2022-10-29T04:13:40.926Z,101316.78
2022-10-29T04:16:07.480Z,101320.34
2022-10-29T04:18:33.998Z,101285.00
2022-10-29T04:29:22.039Z,101272.03
2022-10-29T04:31:48.620Z,101248.03
2022-10-29T04:34:14.955Z,101269.66
2022-10-29T04:36:41.317Z,101228.97
2022-10-29T04:39:08.064Z,101230.81
2022-10-29T04:41:34.920Z,101241.28
2022-10-29T04:44:02.104Z,101265.66
2022-10-29T04:46:28.683Z,101248.78
2022-10-29T04:48:55.117Z,101298.72
2022-10-29T04:51:24.026Z,101290.91
2022-10-29T04:53:50.462Z,101284.00
2022-10-29T04:56:17.625Z,101265.06
2022-10-29T04:58:44.190Z,101273.41
2022-10-29T05:01:10.695Z,101253.19
2022-10-29T05:03:37.250Z,101290.41
2022-10-29T05:06:06.993Z,101258.59
2022-10-29T05:08:33.775Z,101255.53
2022-10-29T05:11:07.010Z,101256.56
2022-10-29T05:13:34.324Z,101240.19
2022-10-29T05:16:00.805Z,101243.63
2022-10-29T05:18:27.128Z,101243.50
2022-10-29T05:20:57.137Z,101245.09
2022-10-29T05:23:23.627Z,101259.13
2022-10-29T05:25:51.896Z,101231.69
2022-10-29T05:28:21.076Z,101231.94
2022-10-29T05:30:49.071Z,101230.69
2022-10-29T05:33:18.502Z,101256.47
2022-10-29T05:35:45.729Z,101266.16
2022-10-29T05:38:13.389Z,101227.88
2022-10-29T05:40:42.837Z,101255.44
2022-10-29T05:43:09.258Z,101232.91
2022-10-29T05:45:35.592Z,101235.25
2022-10-29T05:48:03.828Z,101188.56
2022-10-29T05:50:31.611Z,101233.22
2022-10-29T05:52:59.959Z,101234.00
2022-10-29T05:55:26.827Z,101228.13
2022-10-29T05:58:01.055Z,101234.00
2022-10-29T06:00:29.969Z,101239.97
2022-10-29T06:02:56.941Z,101211.44
2022-10-29T06:05:23.546Z,101097.44
2022-10-29T06:08:00.201Z,101186.59
2022-10-29T06:10:28.996Z,101128.03
2022-10-29T06:12:55.763Z,101191.66
2022-10-29T06:15:22.976Z,101216.03
2022-10-29T06:17:50.241Z,101175.66
2022-10-29T06:20:19.685Z,101201.63
2022-10-29T06:22:46.075Z,101232.63
2022-10-29T06:25:12.458Z,101187.97
2022-10-29T06:27:38.929Z,101194.06
2022-10-29T06:30:05.947Z,101200.88
2022-10-29T06:32:32.294Z,101183.81
2022-10-29T06:34:58.688Z,101226.88
2022-10-29T06:37:25.007Z,101201.63
2022-10-29T06:39:51.323Z,101215.22
2022-10-29T06:42:17.887Z,101202.22
2022-10-29T06:44:44.354Z,101138.63
2022-10-29T06:47:10.761Z,101226.88
2022-10-29T06:49:37.106Z,101221.94
2022-10-29T06:52:03.574Z,101179.84
2022-10-29T06:54:29.876Z,101198.69
2022-10-29T06:56:56.201Z,101228.97
2022-10-29T06:59:24.352Z,101210.75
2022-10-29T07:01:50.715Z,101197.56
2022-10-29T07:04:18.391Z,101212.22
2022-10-29T07:06:45.201Z,101244.41
2022-10-29T07:09:11.660Z,101251.25
2022-10-29T07:11:37.954Z,101232.28
2022-10-29T07:14:05.945Z,101230.69
2022-10-29T07:16:32.440Z,101252.97
2022-10-29T07:18:58.755Z,101228.72
2022-10-29T07:21:25.293Z,101253.78
2022-10-29T07:23:51.732Z,101212.47
2022-10-29T07:26:18.113Z,101244.16
2022-10-29T07:28:44.454Z,101246.63
2022-10-29T07:31:11.116Z,101240.53
2022-10-29T07:33:37.465Z,101236.78
2022-10-29T07:36:03.980Z,101234.09
2022-10-29T07:38:30.318Z,101216.88
2022-10-29T07:40:56.607Z,101248.72
2022-10-29T07:43:23.464Z,101205.69
2022-10-29T07:45:51.238Z,101228.41
2022-10-29T07:48:19.487Z,101246.50
2022-10-29T07:50:46.232Z,101232.31
2022-10-29T07:53:12.890Z,101245.09
2022-10-29T07:55:39.214Z,101220.97
2022-10-29T07:58:09.915Z,101244.00
2022-10-29T08:00:38.237Z,101230.81
2022-10-29T08:03:05.077Z,101217.88
2022-10-29T08:05:31.807Z,101188.47
2022-10-29T08:07:58.921Z,101219.97
2022-10-29T08:10:26.633Z,101239.75
2022-10-29T08:13:03.518Z,101248.38
2022-10-29T08:15:32.139Z,101203.44
2022-10-29T08:17:58.665Z,101187.72
2022-10-29T08:20:27.297Z,101217.75
2022-10-29T08:22:54.384Z,101236.47
2022-10-29T08:25:21.229Z,101201.06
2022-10-29T08:27:59.177Z,101204.38
2022-10-29T08:30:25.475Z,101197.91
2022-10-29T08:32:51.804Z,101239.25
2022-10-29T08:35:18.236Z,101149.19
2022-10-29T08:37:45.460Z,101234.22
2022-10-29T08:40:31.272Z,101227.06
2022-10-29T08:43:29.797Z,101238.09
2022-10-29T08:45:57.239Z,101217.94
2022-10-29T08:48:39.305Z,101212.41
2022-10-29T08:51:13.998Z,101189.97
2022-10-29T08:53:58.868Z,101206.97
2022-10-29T08:56:38.624Z,101236.91
2022-10-29T08:59:11.867Z,101216.06
2022-10-29T09:01:38.632Z,101228.94
2022-10-29T09:04:16.528Z,101206.97
2022-10-29T09:07:20.547Z,101233.75
2022-10-29T09:10:11.158Z,101223.41
2022-10-29T09:13:05.087Z,101214.50
2022-10-29T09:15:53.428Z,101213.31
2022-10-29T09:18:36.593Z,101220.81
2022-10-29T09:21:22.225Z,101213.31
2022-10-29T09:24:24.760Z,101216.97
2022-10-29T09:26:58.917Z,101188.75
2022-10-29T09:29:54.265Z,101200.78
2022-10-29T09:32:25.775Z,101182.09
2022-10-29T09:34:57.843Z,101201.25
2022-10-29T09:37:43.149Z,101214.75
2022-10-29T09:40:29.671Z,101188.09
2022-10-29T09:42:59.003Z,101216.09
2022-10-29T09:45:45.613Z,101214.69
2022-10-29T09:48:20.339Z,101206.09
2022-10-29T09:50:57.805Z,101197.19
2022-10-29T09:53:24.471Z,101181.31
2022-10-29T09:55:53.569Z,101188.72
2022-10-29T09:58:23.668Z,101205.22
2022-10-29T10:00:51.694Z,101204.19
2022-10-29T10:03:47.025Z,101185.00
2022-10-29T10:06:16.106Z,101191.50
2022-10-29T10:09:05.531Z,101211.97
2022-10-29T10:11:44.009Z,101150.66
2022-10-29T10:14:22.028Z,101200.38
2022-10-29T10:16:58.612Z,101150.88
2022-10-29T10:19:31.058Z,101192.09
2022-10-29T10:21:59.816Z,101187.56
2022-10-29T10:24:34.839Z,101192.03
2022-10-29T10:27:21.824Z,101189.28
2022-10-29T10:30:03.488Z,101198.84
2022-10-29T10:32:30.336Z,101187.44
2022-10-29T10:34:56.905Z,101170.38
2022-10-29T10:37:23.848Z,101164.47
2022-10-29T10:39:57.384Z,101192.69
2022-10-29T10:42:37.039Z,101190.38
2022-10-29T10:45:24.377Z,101173.44
2022-10-29T10:47:58.670Z,101146.53
2022-10-29T10:50:33.484Z,101163.09
2022-10-29T10:53:04.281Z,101152.16
2022-10-29T10:55:33.727Z,101174.75
2022-10-29T10:58:19.116Z,101162.22
2022-10-29T11:00:57.679Z,101113.25
2022-10-29T11:03:32.612Z,101145.00
2022-10-29T11:06:10.412Z,101166.63
2022-10-29T11:08:45.375Z,101169.09
2022-10-29T11:11:19.735Z,101150.91
2022-10-29T11:13:46.976Z,101165.34
2022-10-29T11:16:31.632Z,101162.31
2022-10-29T11:19:05.066Z,101168.28
2022-10-29T11:21:40.198Z,101134.00
2022-10-29T11:24:21.657Z,101167.38
2022-10-29T11:27:21.175Z,101142.75
2022-10-29T11:30:03.020Z,101141.56
2022-10-29T11:32:51.938Z,101133.50
2022-10-29T11:35:28.794Z,101157.44
2022-10-29T11:38:02.964Z,101099.00
2022-10-29T11:40:41.409Z,101140.25
2022-10-29T11:43:17.362Z,101110.25
2022-10-29T11:46:06.288Z,101144.63
2022-10-29T11:48:58.882Z,101134.34
2022-10-29T11:51:40.973Z,101110.00
2022-10-29T11:54:35.933Z,101100.16
2022-10-29T11:57:09.395Z,101118.47
2022-10-29T12:00:09.121Z,101116.66
2022-10-29T12:02:57.212Z,101116.41
2022-10-29T12:05:35.981Z,101113.00
2022-10-29T12:08:26.657Z,101114.00
2022-10-29T12:11:13.443Z,101091.75
2022-10-29T12:14:08.950Z,101102.78
2022-10-29T12:16:41.286Z,101113.88
2022-10-29T12:19:13.785Z,101102.72
2022-10-29T12:21:53.274Z,101107.06
2022-10-29T12:24:41.141Z,101099.84
2022-10-29T12:27:32.247Z,101068.44
2022-10-29T12:30:05.588Z,101069.06
2022-10-29T12:32:43.172Z,101072.47
2022-10-29T12:35:12.481Z,101094.16
2022-10-29T12:37:58.006Z,101083.53
2022-10-29T12:40:28.089Z,101082.75
2022-10-29T12:42:56.120Z,101064.69
2022-10-29T12:46:19.700Z,101050.06
2022-10-29T12:48:44.017Z,101091.50
2022-10-29T12:51:34.704Z,101053.03
2022-10-29T12:54:28.060Z,101046.84
2022-10-29T12:56:56.444Z,101037.94
2022-10-29T12:59:25.444Z,101081.72
2022-10-29T13:04:38.645Z,101056.25
2022-10-29T13:10:23.904Z,101061.25
2022-10-29T13:12:59.067Z,101059.06
2022-10-29T13:15:41.305Z,101052.53
2022-10-29T13:18:45.122Z,101049.34
2022-10-29T13:21:11.486Z,101032.69
2022-10-29T13:23:39.663Z,100995.34
2022-10-29T13:26:07.883Z,101037.59
2022-10-29T13:28:37.203Z,101030.72
2022-10-29T13:31:03.473Z,101026.94
2022-10-29T13:33:29.727Z,101023.84
2022-10-29T13:35:57.584Z,101027.47
2022-10-29T13:38:51.183Z,101027.16
2022-10-29T13:41:29.185Z,101008.06
2022-10-29T13:44:08.183Z,101022.72
2022-10-29T13:46:56.463Z,101023.69
2022-10-29T13:49:31.500Z,100985.44
2022-10-29T13:52:05.549Z,100976.22
2022-10-29T13:54:42.544Z,101013.88
2022-10-29T13:57:19.190Z,100987.97
2022-10-29T13:59:51.884Z,100982.75
2022-10-29T14:02:21.252Z,101014.69
2022-10-29T14:04:54.091Z,100975.13
2022-10-29T14:07:28.270Z,101006.97
2022-10-29T14:10:00.399Z,100994.56
2022-10-29T14:12:31.254Z,100921.13
2022-10-29T14:15:02.582Z,100951.81
2022-10-29T14:17:29.254Z,100969.66
2022-10-29T14:19:55.611Z,100961.22
2022-10-29T14:22:23.093Z,100922.81
2022-10-29T14:24:49.426Z,100956.31
2022-10-29T14:27:15.761Z,100998.75
2022-10-29T14:29:42.338Z,100995.44
2022-10-29T14:32:11.891Z,100993.94
2022-10-29T14:34:38.331Z,100958.06
2022-10-29T14:37:11.865Z,100990.34
2022-10-29T14:39:58.113Z,100946.09
2022-10-29T14:42:35.883Z,100989.28
2022-10-29T14:45:16.282Z,100949.06
2022-10-29T14:47:43.180Z,100953.44
2022-10-29T14:50:20.544Z,100988.84
2022-10-29T14:52:53.765Z,100972.63
2022-10-29T14:55:31.303Z,100982.44
2022-10-29T14:58:00.356Z,100989.84
2022-10-29T15:00:30.334Z,100971.34
2022-10-29T15:02:57.750Z,100976.25
2022-10-29T15:05:27.709Z,100964.06
2022-10-29T15:08:08.965Z,100993.56
2022-10-29T15:10:58.085Z,100983.97
2022-10-29T15:13:34.110Z,100965.25
2022-10-29T15:16:03.344Z,100998.72
2022-10-29T15:18:32.493Z,100973.69
2022-10-29T15:20:59.085Z,100979.47
2022-10-29T15:23:43.698Z,100989.94
2022-10-29T15:26:27.846Z,100987.16
2022-10-29T15:28:56.534Z,100951.28
2022-10-29T15:31:47.751Z,100983.06
2022-10-29T15:34:33.869Z,100963.47
2022-10-29T15:37:21.384Z,100966.16
2022-10-29T15:39:59.552Z,100984.31
2022-10-29T15:42:32.106Z,100978.13
2022-10-29T15:45:07.615Z,100993.16
2022-10-29T15:47:36.611Z,100963.91
2022-10-29T15:50:04.795Z,100988.03
2022-10-29T15:52:39.081Z,100968.88
2022-10-29T15:55:09.370Z,100967.41
2022-10-29T15:57:35.764Z,100954.88
2022-10-29T16:00:09.014Z,100943.84
2022-10-29T16:02:35.624Z,100919.78
2022-10-29T16:05:02.015Z,100926.06
2022-10-29T16:07:28.572Z,100956.56
2022-10-29T16:09:58.927Z,100919.97
2022-10-29T16:12:25.577Z,100919.81
2022-10-29T16:14:51.930Z,100908.50
2022-10-29T16:17:21.023Z,100949.53
2022-10-29T16:19:47.440Z,100960.00
2022-10-29T16:22:28.497Z,100925.31
2022-10-29T16:24:55.398Z,100913.34
2022-10-29T16:27:22.026Z,100933.03
2022-10-29T16:29:49.942Z,100918.47
2022-10-29T16:32:18.888Z,100946.47
2022-10-29T16:34:45.194Z,100948.00
2022-10-29T16:37:13.977Z,100924.44
2022-10-29T16:39:41.037Z,100899.91
2022-10-29T16:42:10.173Z,100960.31
2022-10-29T16:44:36.465Z,100936.19
2022-10-29T16:47:02.834Z,100941.59
2022-10-29T16:49:29.145Z,100889.63
2022-10-29T16:51:55.451Z,100941.59
2022-10-29T16:54:21.789Z,100950.34
2022-10-29T16:56:50.276Z,100944.72
2022-10-29T16:59:16.572Z,100939.59
2022-10-29T17:01:43.156Z,100902.41
2022-10-29T17:04:09.595Z,100931.16
2022-10-29T17:06:35.972Z,100924.09
2022-10-29T17:09:05.626Z,100910.59
2022-10-29T17:11:32.465Z,100943.97
2022-10-29T17:13:58.879Z,100921.53
2022-10-29T17:16:25.201Z,100917.16
2022-10-29T17:18:51.911Z,100898.59
2022-10-29T17:21:18.269Z,100910.41
2022-10-29T17:23:44.610Z,100940.75
2022-10-29T17:26:10.966Z,100909.38
2022-10-29T17:28:38.648Z,100916.59
2022-10-29T17:31:06.665Z,100926.75
2022-10-29T17:33:32.994Z,100935.06
2022-10-29T17:36:04.773Z,100942.56
2022-10-29T17:38:31.273Z,100907.31
2022-10-29T17:40:57.753Z,100950.38
2022-10-29T17:43:24.132Z,100903.44
2022-10-29T17:45:50.644Z,100912.66
2022-10-29T17:48:22.334Z,100946.97
2022-10-29T17:50:55.609Z,100926.47
2022-10-29T17:53:22.845Z,100938.00
2022-10-29T17:58:20.104Z,100932.09
2022-10-29T18:00:48.205Z,100912.66
2022-10-29T18:03:14.778Z,100923.16
2022-10-29T18:05:41.122Z,100938.56
2022-10-29T18:08:07.432Z,100937.75
2022-10-29T18:10:34.632Z,100944.28
2022-10-29T18:13:01.293Z,100936.72
2022-10-29T18:15:28.114Z,100928.16
2022-10-29T18:17:54.518Z,100855.41
2022-10-29T18:20:20.907Z,100929.81
2022-10-29T18:22:50.612Z,100909.25
2022-10-29T18:25:18.403Z,100921.16
2022-10-29T18:27:44.757Z,100939.59
2022-10-29T18:30:11.296Z,100930.66
2022-10-29T18:32:37.654Z,100856.66
2022-10-29T18:35:04.731Z,100949.88
2022-10-29T18:37:31.057Z,100935.41
2022-10-29T18:39:58.862Z,100945.81
2022-10-29T18:42:25.206Z,100965.19
2022-10-29T18:44:51.496Z,100945.47
2022-10-29T18:47:17.810Z,100923.75
2022-10-29T18:49:44.140Z,100874.38
2022-10-29T18:52:10.468Z,100945.38
2022-10-29T18:54:36.806Z,100934.38
2022-10-29T18:57:03.235Z,100977.13
2022-10-29T18:59:29.560Z,100975.22
2022-10-29T19:01:55.973Z,100963.34
2022-10-29T19:04:27.487Z,100943.56
2022-10-29T19:06:58.982Z,100944.31
2022-10-29T19:09:25.398Z,100946.72
2022-10-29T19:11:55.269Z,100941.75
2022-10-29T19:14:24.751Z,100923.59
2022-10-29T19:16:51.098Z,100936.47
2022-10-29T19:19:21.170Z,100942.13
2022-10-29T19:21:50.215Z,100945.91
2022-10-29T19:24:16.729Z,100960.28
2022-10-29T19:26:43.710Z,100930.72
2022-10-29T19:29:10.821Z,100984.16
2022-10-29T19:31:37.194Z,100973.41
2022-10-29T19:34:06.037Z,100935.44
2022-10-29T19:36:34.347Z,100972.66
2022-10-29T19:39:00.983Z,100973.84
2022-10-29T19:41:28.127Z,100971.09
2022-10-29T19:43:54.488Z,100974.13
2022-10-29T19:46:24.767Z,100931.16
2022-10-29T19:48:53.825Z,100970.25
2022-10-29T19:51:21.223Z,100985.00
2022-10-29T19:53:48.076Z,100983.81
2022-10-29T19:56:16.150Z,100927.47
2022-10-29T19:58:42.615Z,100866.03
2022-10-29T20:01:12.409Z,100951.97
2022-10-29T20:03:38.947Z,100965.09
2022-10-29T20:06:06.536Z,100955.09
2022-10-29T20:08:33.127Z,100981.03
2022-10-29T20:11:00.324Z,100947.09
2022-10-29T20:13:27.560Z,100977.44
2022-10-29T20:15:54.426Z,100975.56
2022-10-29T20:18:21.233Z,100974.00
2022-10-29T20:20:54.260Z,100950.28
2022-10-29T20:23:20.775Z,100952.50
2022-10-29T20:25:47.092Z,100981.66
2022-10-29T20:28:13.473Z,100959.22
2022-10-29T20:30:39.833Z,100949.94
2022-10-29T20:33:06.342Z,100952.69
2022-10-29T20:35:32.760Z,100964.47
2022-10-29T20:37:59.544Z,100953.81
2022-10-29T20:40:26.207Z,100957.41
2022-10-29T20:42:52.556Z,100963.75
2022-10-29T20:45:19.752Z,100982.22
2022-10-29T20:47:46.162Z,100951.97
2022-10-29T20:50:12.620Z,100961.75
2022-10-29T20:52:39.866Z,100983.50
2022-10-29T20:55:08.718Z,100984.75
2022-10-29T20:57:35.095Z,100985.69
2022-10-29T21:00:01.455Z,101016.91
2022-10-29T21:02:28.004Z,100988.81
2022-10-29T21:04:54.444Z,100985.53
2022-10-29T21:07:20.849Z,101001.88
2022-10-29T21:09:48.418Z,101025.19
2022-10-29T21:12:14.850Z,101007.06
2022-10-29T21:14:41.167Z,100993.31
2022-10-29T21:17:07.628Z,101012.78
2022-10-29T21:19:33.984Z,101008.47
2022-10-29T21:22:00.337Z,100999.22
2022-10-29T21:24:26.637Z,100987.16
2022-10-29T21:26:52.964Z,100976.53
2022-10-29T21:29:19.277Z,101011.31
2022-10-29T21:31:48.564Z,101016.63
2022-10-29T21:34:14.890Z,101013.47
2022-10-29T21:36:41.220Z,100992.97
2022-10-29T21:39:07.511Z,100964.41
2022-10-29T21:41:33.863Z,101016.25
2022-10-29T21:44:00.178Z,101040.31
2022-10-29T21:46:26.511Z,101024.22
2022-10-29T21:48:55.465Z,101030.00
2022-10-29T21:51:21.765Z,101036.88
2022-10-29T21:53:48.107Z,101014.53
2022-10-29T21:56:15.060Z,101041.59
2022-10-29T21:58:42.064Z,101041.44
2022-10-29T22:01:13.937Z,101027.69
2022-10-29T22:03:42.269Z,101041.28
2022-10-29T22:06:26.469Z,100988.16
2022-10-29T22:08:57.990Z,101036.75
2022-10-29T22:11:25.923Z,101013.66
2022-10-29T22:13:53.479Z,101014.84
2022-10-29T22:16:20.459Z,101028.41
2022-10-29T22:18:47.205Z,100975.03
2022-10-29T22:21:19.965Z,101039.38
2022-10-29T22:23:48.730Z,101012.88
2022-10-29T22:26:16.838Z,101039.38
2022-10-29T22:28:43.603Z,101003.16
2022-10-29T22:31:10.365Z,101017.81
2022-10-29T22:33:36.716Z,101016.25
2022-10-29T22:36:13.941Z,101013.44
2022-10-29T22:38:40.589Z,101007.97
2022-10-29T22:41:15.596Z,100996.72
2022-10-29T22:43:42.797Z,101025.22
2022-10-29T22:46:13.669Z,101020.59
2022-10-29T22:48:40.421Z,101003.56
2022-10-29T22:51:11.496Z,101021.63
2022-10-29T22:53:37.800Z,101017.16
2022-10-29T22:56:04.995Z,101027.97
2022-10-29T22:58:31.741Z,101030.75
2022-10-29T23:01:06.922Z,101018.25
2022-10-29T23:03:34.561Z,101036.66
2022-10-29T23:06:02.877Z,100982.53
2022-10-29T23:08:29.767Z,101016.38
2022-10-29T23:10:56.260Z,101000.75
2022-10-29T23:13:22.848Z,101033.50
2022-10-29T23:15:50.663Z,101036.03
2022-10-29T23:18:17.577Z,101043.91
2022-10-29T23:20:44.137Z,101043.34
2022-10-29T23:23:10.886Z,101033.81
2022-10-29T23:25:41.365Z,101035.72
2022-10-29T23:28:08.465Z,101018.81
2022-10-29T23:30:35.265Z,101041.84
2022-10-29T23:33:01.704Z,101030.69
2022-10-29T23:35:28.607Z,101039.72
2022-10-29T23:37:55.421Z,101013.94
2022-10-29T23:40:21.996Z,101017.22
2022-10-29T23:42:48.337Z,101029.84
2022-10-29T23:45:16.786Z,101048.38
2022-10-29T23:47:43.137Z,101034.63
2022-10-29T23:50:09.671Z,101002.81
2022-10-29T23:52:36.054Z,101046.34
2022-10-29T23:55:02.372Z,101048.06
2022-10-29T23:57:28.701Z,101022.38
2022-10-29T23:59:54.992Z,101000.75
